Time;durP1;ratioP1;P1;durP2;ratioP2;P2;SDS_P1;SDS_P2;PMS_P1;PMS_P2;Temp;Humidity;BMP_temperature;BMP_pressure;BME280_temperature;BME280_humidity;BME280_pressure;Samples;Min_cycle;Max_cycle;Signal;HPM_P1;HPM_P2
2022/08/09 00:00:06;;;;;;;0.43;0.40;;;;;;;;;;5020835;28;87088;-52
2022/08/09 00:02:40;;;;;;;1.37;0.60;;;;;;;;;;5020039;28;88079;-53
2022/08/09 00:05:17;;;;;;;0.47;0.47;;;;;;;;;;5019778;28;87904;-52
2022/08/09 00:08:09;;;;;;;1.00;0.50;;;;;;;;;;5018370;28;87112;-52
2022/08/09 00:10:38;;;;;;;0.40;0.40;;;;;;;;;;5019714;28;86905;-52
2022/08/09 00:13:09;;;;;;;0.50;0.50;;;;;;;;;;5020144;28;89083;-52
2022/08/09 00:15:44;;;;;;;0.80;0.80;;;;;;;;;;5021151;28;87745;-53
2022/08/09 00:18:30;;;;;;;0.53;0.53;;;;;;;;;;5016098;28;87044;-52
2022/08/09 00:21:03;;;;;;;0.43;0.40;;;;;;;;;;5020384;28;87780;-52
2022/08/09 00:23:32;;;;;;;0.50;0.50;;;;;;;;;;5005714;28;89193;-53
2022/08/09 00:26:20;;;;;;;0.77;0.67;;;;;;;;;;5019418;28;88396;-53
2022/08/09 00:29:00;;;;;;;1.30;0.80;;;;;;;;;;5020254;28;87084;-53
2022/08/09 00:31:28;;;;;;;1.47;0.90;;;;;;;;;;5019652;28;87049;-52
2022/08/09 00:34:18;;;;;;;2.63;1.10;;;;;;;;;;5019503;28;87990;-52
2022/08/09 00:36:47;;;;;;;1.10;0.70;;;;;;;;;;5018728;28;88912;-53
2022/08/09 00:39:16;;;;;;;3.03;0.80;;;;;;;;;;5002974;28;87111;-53
2022/08/09 00:42:04;;;;;;;0.90;0.60;;;;;;;;;;5000232;28;86480;-52
2022/08/09 00:44:52;;;;;;;0.83;0.73;;;;;;;;;;5013299;28;90404;-52
2022/08/09 00:47:21;;;;;;;1.37;0.87;;;;;;;;;;5006618;28;88933;-52
2022/08/09 00:49:55;;;;;;;2.30;0.80;;;;;;;;;;5019077;28;88466;-53
2022/08/09 00:52:25;;;;;;;0.97;0.73;;;;;;;;;;5018674;28;87177;-52
2022/08/09 00:54:57;;;;;;;0.80;0.80;;;;;;;;;;5019218;28;88167;-52
2022/08/09 00:57:28;;;;;;;1.67;0.77;;;;;;;;;;5019423;28;87729;-53
2022/08/09 01:00:03;;;;;;;1.17;0.90;;;;;;;;;;5020366;28;87061;-53
2022/08/09 01:02:50;;;;;;;0.57;0.50;;;;;;;;;;5015385;28;87066;-52
2022/08/09 01:05:22;;;;;;;1.63;0.70;;;;;;;;;;5020196;28;89246;-53
2022/08/09 01:08:12;;;;;;;1.20;0.63;;;;;;;;;;5016879;28;87379;-53
2022/08/09 01:10:45;;;;;;;1.17;1.07;;;;;;;;;;5020038;28;87092;-52
2022/08/09 01:13:19;;;;;;;1.73;0.60;;;;;;;;;;5019379;28;88054;-52
2022/08/09 01:15:49;;;;;;;1.13;0.70;;;;;;;;;;5019041;28;89039;-52
2022/08/09 01:18:20;;;;;;;1.73;0.80;;;;;;;;;;5012894;28;89724;-52
2022/08/09 01:21:05;;;;;;;1.30;0.87;;;;;;;;;;5005500;28;87091;-52
2022/08/09 01:23:40;;;;;;;0.67;0.63;;;;;;;;;;5021028;28;86964;-53
2022/08/09 01:26:56;;;;;;;0.50;0.50;;;;;;;;;;5019830;28;90697;-52
2022/08/09 01:29:31;;;;;;;0.60;0.60;;;;;;;;;;5020158;28;87441;-53
2022/08/09 01:32:19;;;;;;;0.67;0.60;;;;;;;;;;5020626;28;87104;-52
2022/08/09 01:35:07;;;;;;;0.87;0.60;;;;;;;;;;5001180;28;86319;-52
2022/08/09 01:37:57;;;;;;;0.60;0.60;;;;;;;;;;5016636;28;87687;-52
2022/08/09 01:40:38;;;;;;;1.20;0.77;;;;;;;;;;5018896;28;87831;-52
2022/08/09 01:43:09;;;;;;;2.33;0.60;;;;;;;;;;5004565;28;88579;-52
2022/08/09 01:45:37;;;;;;;1.10;1.00;;;;;;;;;;5018971;28;87383;-52
2022/08/09 01:48:13;;;;;;;2.27;1.03;;;;;;;;;;5014209;28;88143;-52
2022/08/09 01:50:43;;;;;;;1.37;1.10;;;;;;;;;;5023284;28;87785;-52
2022/08/09 01:53:15;;;;;;;3.27;1.40;;;;;;;;;;5023809;28;87006;-51
2022/08/09 01:55:47;;;;;;;2.23;1.60;;;;;;;;;;5007958;28;87045;-52
2022/08/09 01:58:17;;;;;;;4.23;1.37;;;;;;;;;;5023853;28;89364;-52
2022/08/09 02:00:51;;;;;;;1.50;1.10;;;;;;;;;;5019072;28;87793;-52
2022/08/09 02:03:20;;;;;;;3.97;1.40;;;;;;;;;;5017855;28;86918;-51
2022/08/09 02:05:49;;;;;;;2.13;0.80;;;;;;;;;;5023029;28;86988;-52
2022/08/09 02:08:35;;;;;;;1.60;1.07;;;;;;;;;;5022181;28;90153;-52
2022/08/09 02:11:23;;;;;;;1.43;1.23;;;;;;;;;;5022601;28;88435;-51
2022/08/09 02:14:11;;;;;;;1.00;0.90;;;;;;;;;;5011372;28;87126;-51
2022/08/09 02:16:54;;;;;;;1.07;0.97;;;;;;;;;;5023040;28;87013;-52
2022/08/09 02:19:42;;;;;;;0.97;0.90;;;;;;;;;;5022513;28;87697;-52
2022/08/09 02:22:12;;;;;;;1.97;1.07;;;;;;;;;;5022826;28;87023;-52
2022/08/09 02:24:41;;;;;;;0.63;0.63;;;;;;;;;;5021973;28;87408;-52
2022/08/09 02:27:13;;;;;;;0.80;0.70;;;;;;;;;;5007655;28;86344;-52
2022/08/09 02:29:48;;;;;;;0.73;0.60;;;;;;;;;;5023709;28;88014;-51
2022/08/09 02:32:17;;;;;;;1.00;0.73;;;;;;;;;;5019869;28;88835;-53
2022/08/09 02:34:46;;;;;;;1.00;0.90;;;;;;;;;;5016304;28;89583;-52
2022/08/09 02:37:26;;;;;;;0.70;0.70;;;;;;;;;;5015266;28;88688;-53
2022/08/09 02:40:05;;;;;;;1.53;1.00;;;;;;;;;;5015889;28;89317;-52
2022/08/09 02:42:38;;;;;;;1.50;1.10;;;;;;;;;;5015787;28;88823;-52
2022/08/09 02:45:08;;;;;;;1.27;1.17;;;;;;;;;;5016984;28;87159;-53
2022/08/09 02:47:38;;;;;;;2.03;1.27;;;;;;;;;;5016049;28;88877;-53
2022/08/09 02:50:27;;;;;;;1.00;0.90;;;;;;;;;;5008482;28;88111;-52
2022/08/09 02:52:56;;;;;;;1.80;1.30;;;;;;;;;;5023870;28;87884;-52
2022/08/09 02:55:25;;;;;;;1.83;1.20;;;;;;;;;;5021519;28;87389;-53
2022/08/09 02:58:13;;;;;;;2.27;0.90;;;;;;;;;;5022056;28;87048;-53
2022/08/09 03:01:03;;;;;;;3.37;1.53;;;;;;;;;;5021886;28;88688;-53
2022/08/09 03:03:34;;;;;;;1.77;1.10;;;;;;;;;;5022704;28;88825;-53
2022/08/09 03:06:23;;;;;;;1.53;1.10;;;;;;;;;;5022825;28;86927;-53
2022/08/09 03:08:54;;;;;;;2.70;1.50;;;;;;;;;;5023303;28;87117;-52
2022/08/09 03:11:23;;;;;;;1.07;0.90;;;;;;;;;;5022761;28;89157;-52
2022/08/09 03:14:11;;;;;;;1.90;1.07;;;;;;;;;;5022577;28;87102;-52
2022/08/09 03:16:41;;;;;;;2.37;1.00;;;;;;;;;;5023134;28;89012;-52
2022/08/09 03:19:15;;;;;;;3.03;1.13;;;;;;;;;;5022844;28;86358;-52
2022/08/09 03:22:04;;;;;;;2.53;1.33;;;;;;;;;;5005622;28;87720;-53
2022/08/09 03:24:39;;;;;;;2.10;1.17;;;;;;;;;;5018936;28;87865;-53
2022/08/09 03:27:19;;;;;;;1.30;0.90;;;;;;;;;;5021947;28;87988;-52
2022/08/09 03:29:49;;;;;;;1.53;0.70;;;;;;;;;;5022783;28;86823;-52
2022/08/09 03:32:29;;;;;;;1.73;0.80;;;;;;;;;;5022594;28;88051;-52
2022/08/09 03:34:58;;;;;;;1.53;0.70;;;;;;;;;;5021414;28;87786;-52
2022/08/09 03:37:27;;;;;;;0.80;0.70;;;;;;;;;;5022234;28;87060;-52
2022/08/09 03:40:15;;;;;;;0.90;0.63;;;;;;;;;;5022852;28;87019;-52
2022/08/09 03:42:45;;;;;;;1.43;0.80;;;;;;;;;;5022028;28;88155;-52
2022/08/09 03:45:14;;;;;;;0.60;0.60;;;;;;;;;;5021977;28;86480;-52
2022/08/09 03:47:44;;;;;;;0.57;0.57;;;;;;;;;;5022334;28;87070;-52
2022/08/09 03:50:14;;;;;;;0.90;0.77;;;;;;;;;;5020922;28;87197;-51
2022/08/09 03:52:55;;;;;;;0.83;0.50;;;;;;;;;;5021655;28;89207;-51
2022/08/09 03:55:24;;;;;;;0.70;0.70;;;;;;;;;;5021943;28;88696;-52
2022/08/09 03:57:55;;;;;;;0.57;0.57;;;;;;;;;;5022458;28;86861;-52
2022/08/09 04:00:37;;;;;;;2.67;0.60;;;;;;;;;;5022534;28;87057;-54
2022/08/09 04:03:06;;;;;;;0.67;0.63;;;;;;;;;;5021836;28;89224;-53
2022/08/09 04:05:38;;;;;;;2.83;0.60;;;;;;;;;;5021075;28;87979;-52
2022/08/09 04:08:07;;;;;;;1.00;0.93;;;;;;;;;;5022042;28;87132;-53
2022/08/09 04:10:36;;;;;;;2.20;0.67;;;;;;;;;;5021421;28;86461;-53
2022/08/09 04:13:08;;;;;;;2.10;0.90;;;;;;;;;;5021905;28;87977;-52
2022/08/09 04:15:39;;;;;;;0.73;0.70;;;;;;;;;;5021189;28;87044;-52
2022/08/09 04:18:31;;;;;;;0.60;0.60;;;;;;;;;;5021121;28;87988;-52
2022/08/09 04:20:59;;;;;;;1.87;1.10;;;;;;;;;;5005153;28;87214;-53
2022/08/09 04:23:28;;;;;;;1.60;0.90;;;;;;;;;;5021557;28;88345;-53
2022/08/09 04:25:56;;;;;;;0.70;0.70;;;;;;;;;;5021312;28;87677;-53
2022/08/09 04:28:28;;;;;;;0.50;0.50;;;;;;;;;;5021587;28;87030;-52
2022/08/09 04:31:04;;;;;;;1.30;1.20;;;;;;;;;;5021351;28;87040;-53
2022/08/09 04:33:37;;;;;;;2.17;1.30;;;;;;;;;;5021492;28;89128;-52
2022/08/09 04:36:20;;;;;;;1.60;1.17;;;;;;;;;;5021620;28;88806;-52
2022/08/09 04:38:50;;;;;;;2.50;0.87;;;;;;;;;;5021704;28;87111;-53
2022/08/09 04:41:21;;;;;;;1.70;1.13;;;;;;;;;;5020932;28;87072;-52
2022/08/09 04:43:51;;;;;;;1.37;0.80;;;;;;;;;;5020397;28;90068;-52
2022/08/09 04:46:36;;;;;;;4.57;1.13;;;;;;;;;;5020614;28;87343;-52
2022/08/09 04:52:57;;;;;;;1.57;1.30;;;;;;;;;;5011298;22;87651;-49
2022/08/09 04:55:42;;;;;;;1.17;1.03;;;;;;;;;;5025564;22;88262;-52
2022/08/09 04:58:26;;;;;;;1.80;0.93;;;;;;;;;;5010719;28;91274;-51
2022/08/09 05:00:54;;;;;;;1.20;1.13;;;;;;;;;;5021637;28;86902;-51
2022/08/09 05:03:24;;;;;;;1.53;1.17;;;;;;;;;;5021715;28;86287;-52
2022/08/09 05:06:10;;;;;;;3.00;1.00;;;;;;;;;;5021226;28;88332;-52
2022/08/09 05:08:55;;;;;;;3.77;1.60;;;;;;;;;;5020632;28;88691;-52
2022/08/09 05:11:28;;;;;;;4.17;1.70;;;;;;;;;;5020162;28;88227;-51
2022/08/09 05:14:02;;;;;;;1.00;0.90;;;;;;;;;;5021064;28;87065;-52
2022/08/09 05:16:34;;;;;;;2.77;1.80;;;;;;;;;;5017614;28;87270;-52
2022/08/09 05:19:22;;;;;;;3.43;2.13;;;;;;;;;;5020994;28;86996;-52
2022/08/09 05:21:53;;;;;;;6.70;2.50;;;;;;;;;;5020413;28;87045;-52
2022/08/09 05:24:24;;;;;;;3.53;2.43;;;;;;;;;;5020914;28;87096;-52
2022/08/09 05:26:52;;;;;;;5.67;3.13;;;;;;;;;;5020228;28;88059;-52
2022/08/09 05:29:21;;;;;;;5.43;2.73;;;;;;;;;;5021282;28;87966;-53
2022/08/09 05:31:51;;;;;;;5.03;2.87;;;;;;;;;;5021049;28;87081;-53
2022/08/09 05:34:25;;;;;;;6.63;3.03;;;;;;;;;;5020210;28;87515;-53
2022/08/09 05:36:59;;;;;;;4.33;3.13;;;;;;;;;;5019597;28;89054;-52
2022/08/09 05:39:33;;;;;;;7.40;3.17;;;;;;;;;;5020092;28;88757;-53
2022/08/09 05:42:11;;;;;;;4.33;3.43;;;;;;;;;;5020616;28;86954;-53
2022/08/09 05:44:49;;;;;;;4.77;2.83;;;;;;;;;;5005793;28;87798;-53
2022/08/09 05:47:18;;;;;;;4.47;3.10;;;;;;;;;;5018595;28;88005;-53
2022/08/09 05:49:49;;;;;;;5.20;3.43;;;;;;;;;;5010846;28;89005;-52
2022/08/09 05:52:38;;;;;;;5.73;3.03;;;;;;;;;;5008744;28;87010;-53
2022/08/09 05:55:08;;;;;;;6.43;3.40;;;;;;;;;;5011467;28;86591;-52
2022/08/09 05:57:48;;;;;;;5.53;3.37;;;;;;;;;;5012597;28;87884;-52
2022/08/09 06:00:24;;;;;;;6.20;3.27;;;;;;;;;;5011293;28;88998;-52
2022/08/09 06:02:52;;;;;;;7.47;4.07;;;;;;;;;;5014686;28;88057;-53
2022/08/09 06:05:24;;;;;;;15.40;5.57;;;;;;;;;;5013929;28;87603;-53
2022/08/09 06:08:12;;;;;;;10.40;5.97;;;;;;;;;;5012261;28;87753;-52
2022/08/09 06:10:48;;;;;;;11.50;6.43;;;;;;;;;;5012606;28;87810;-52
2022/08/09 06:13:18;;;;;;;12.50;5.53;;;;;;;;;;5008751;28;87076;-52
2022/08/09 06:15:48;;;;;;;13.37;5.20;;;;;;;;;;5009009;28;86908;-52
2022/08/09 06:18:19;;;;;;;9.53;5.47;;;;;;;;;;5008707;28;89292;-54
2022/08/09 06:20:55;;;;;;;11.37;5.37;;;;;;;;;;5012953;28;86611;-52
2022/08/09 06:23:26;;;;;;;7.57;4.27;;;;;;;;;;5003626;28;87029;-52
2022/08/09 06:26:16;;;;;;;6.40;3.80;;;;;;;;;;5012091;28;87084;-52
2022/08/09 06:28:49;;;;;;;7.00;3.30;;;;;;;;;;5003501;28;89000;-52
2022/08/09 06:31:31;;;;;;;5.13;3.30;;;;;;;;;;5000171;28;89664;-53
2022/08/09 06:34:20;;;;;;;7.07;3.60;;;;;;;;;;5001599;28;86991;-53
2022/08/09 06:36:50;;;;;;;8.60;4.50;;;;;;;;;;5007764;28;87178;-54
2022/08/09 06:39:27;;;;;;;9.50;4.70;;;;;;;;;;5012843;28;88044;-52
2022/08/09 06:42:17;;;;;;;9.47;5.20;;;;;;;;;;5014071;28;87312;-51
2022/08/09 06:44:47;;;;;;;13.80;5.40;;;;;;;;;;5013285;28;87506;-53
2022/08/09 06:47:22;;;;;;;7.77;4.53;;;;;;;;;;5011912;28;86482;-53
2022/08/09 06:49:51;;;;;;;9.00;4.07;;;;;;;;;;5015337;28;88834;-51
2022/08/09 06:52:44;;;;;;;8.70;3.60;;;;;;;;;;5012268;28;87062;-52
2022/08/09 06:55:14;;;;;;;6.07;3.53;;;;;;;;;;5012231;28;88000;-52
2022/08/09 06:57:45;;;;;;;4.17;2.90;;;;;;;;;;5010850;28;87228;-53
2022/08/09 07:00:31;;;;;;;8.20;3.37;;;;;;;;;;5013098;28;88773;-52
2022/08/09 07:03:19;;;;;;;3.90;2.50;;;;;;;;;;5011387;28;87387;-53
2022/08/09 07:05:55;;;;;;;3.40;2.10;;;;;;;;;;5013333;28;87145;-53
2022/08/09 07:08:32;;;;;;;5.20;2.43;;;;;;;;;;5014318;28;87199;-52
2022/08/09 07:11:01;;;;;;;7.63;2.43;;;;;;;;;;5008835;28;88226;-52
2022/08/09 07:13:32;;;;;;;4.23;2.57;;;;;;;;;;5011628;28;88802;-52
2022/08/09 07:16:20;;;;;;;7.30;2.63;;;;;;;;;;5006336;28;87171;-52
2022/08/09 07:19:10;;;;;;;5.67;2.87;;;;;;;;;;5012303;28;87279;-52
2022/08/09 07:21:50;;;;;;;3.10;2.40;;;;;;;;;;5012101;28;89016;-52
2022/08/09 07:24:25;;;;;;;2.53;2.10;;;;;;;;;;5005962;28;89773;-52
2022/08/09 07:27:07;;;;;;;2.97;2.53;;;;;;;;;;5005909;28;87593;-53
2022/08/09 07:29:55;;;;;;;3.53;1.93;;;;;;;;;;5008467;28;87170;-53
2022/08/09 07:32:24;;;;;;;4.70;2.37;;;;;;;;;;5012032;28;88119;-53
2022/08/09 07:35:01;;;;;;;5.33;2.50;;;;;;;;;;5010884;28;88857;-53
2022/08/09 07:37:37;;;;;;;2.63;2.03;;;;;;;;;;5022375;28;87028;-52
2022/08/09 07:40:12;;;;;;;3.63;2.20;;;;;;;;;;5022439;28;86243;-52
2022/08/09 07:42:51;;;;;;;3.83;1.97;;;;;;;;;;5022099;28;89260;-53
2022/08/09 07:45:25;;;;;;;3.60;2.53;;;;;;;;;;5017641;28;86921;-53
2022/08/09 07:48:07;;;;;;;4.63;2.53;;;;;;;;;;5011298;28;87975;-52
2022/08/09 07:50:55;;;;;;;2.97;1.73;;;;;;;;;;5011380;28;87085;-52
2022/08/09 07:53:44;;;;;;;4.10;1.57;;;;;;;;;;5011215;28;87925;-50
2022/08/09 07:56:32;;;;;;;4.53;2.53;;;;;;;;;;5009127;28;87454;-52
2022/08/09 07:59:01;;;;;;;3.00;1.73;;;;;;;;;;5011974;28;86987;-52
2022/08/09 08:01:41;;;;;;;3.10;1.77;;;;;;;;;;5012024;28;87099;-52
2022/08/09 08:04:09;;;;;;;2.77;2.33;;;;;;;;;;5010453;28;88141;-53
2022/08/09 08:06:38;;;;;;;3.27;2.10;;;;;;;;;;5010026;28;88848;-52
2022/08/09 08:09:23;;;;;;;5.20;2.17;;;;;;;;;;5009679;28;86984;-52
2022/08/09 08:12:11;;;;;;;2.30;1.63;;;;;;;;;;5010620;28;86986;-51
2022/08/09 08:14:56;;;;;;;2.90;1.60;;;;;;;;;;5010867;28;89166;-52
2022/08/09 08:17:27;;;;;;;3.50;2.00;;;;;;;;;;5009277;28;89761;-52
2022/08/09 08:20:16;;;;;;;4.30;2.00;;;;;;;;;;5009330;28;87056;-52
2022/08/09 08:22:56;;;;;;;4.00;2.13;;;;;;;;;;5009558;28;87023;-52
2022/08/09 08:25:29;;;;;;;2.97;1.87;;;;;;;;;;5007696;28;88084;-51
2022/08/09 08:28:11;;;;;;;3.07;1.77;;;;;;;;;;5005038;28;87286;-52
2022/08/09 08:30:42;;;;;;;2.20;1.77;;;;;;;;;;5001422;28;86980;-52
2022/08/09 08:33:12;;;;;;;3.70;2.10;;;;;;;;;;5001940;28;86334;-52
2022/08/09 08:35:51;;;;;;;3.03;1.63;;;;;;;;;;5001184;28;89261;-53
2022/08/09 08:38:27;;;;;;;3.47;1.97;;;;;;;;;;5001456;28;87458;-51
2022/08/09 08:40:55;;;;;;;2.77;1.63;;;;;;;;;;5001315;28;87723;-51
2022/08/09 08:43:24;;;;;;;3.40;1.90;;;;;;;;;;5007985;28;87189;-53
2022/08/09 08:45:55;;;;;;;2.87;1.43;;;;;;;;;;5001124;28;89151;-52
2022/08/09 08:48:45;;;;;;;1.57;1.43;;;;;;;;;;5000841;28;87014;-53
2022/08/09 08:51:20;;;;;;;2.47;1.57;;;;;;;;;;5001867;28;87027;-54
2022/08/09 08:53:51;;;;;;;3.73;0.93;;;;;;;;;;5001202;28;86917;-53
2022/08/09 08:56:33;;;;;;;2.03;1.40;;;;;;;;;;5000630;28;89276;-52
2022/08/09 08:59:03;;;;;;;1.87;1.13;;;;;;;;;;5000798;28;87745;-52
2022/08/09 09:01:45;;;;;;;3.13;1.27;;;;;;;;;;5001134;28;87010;-53
2022/08/09 09:04:28;;;;;;;1.20;1.03;;;;;;;;;;5001350;28;87443;-53
2022/08/09 09:07:01;;;;;;;2.27;1.30;;;;;;;;;;5000182;28;88824;-52
2022/08/09 09:09:32;;;;;;;1.37;1.27;;;;;;;;;;5000615;28;88711;-53
2022/08/09 09:12:21;;;;;;;2.60;1.30;;;;;;;;;;5001595;28;86913;-53
2022/08/09 09:14:50;;;;;;;3.43;2.37;;;;;;;;;;5001216;28;87012;-51
2022/08/09 09:17:19;;;;;;;3.63;1.50;;;;;;;;;;5001145;28;87024;-53
2022/08/09 09:19:49;;;;;;;3.27;1.87;;;;;;;;;;5000682;28;87760;-52
2022/08/09 09:22:19;;;;;;;4.53;1.80;;;;;;;;;;5001392;28;87173;-53
2022/08/09 09:24:56;;;;;;;2.93;2.13;;;;;;;;;;5001551;28;86373;-53
2022/08/09 09:27:44;;;;;;;4.83;2.47;;;;;;;;;;5000621;28;87702;-52
2022/08/09 09:30:32;;;;;;;5.43;2.57;;;;;;;;;;5001223;28;89731;-52
2022/08/09 09:33:09;;;;;;;3.97;2.00;;;;;;;;;;5000877;28;87937;-54
2022/08/09 09:35:55;;;;;;;3.33;2.10;;;;;;;;;;5001122;28;86959;-53
2022/08/09 09:38:40;;;;;;;3.07;1.87;;;;;;;;;;5000851;28;89023;-52
2022/08/09 09:41:10;;;;;;;3.23;2.13;;;;;;;;;;5001016;28;87555;-52
2022/08/09 09:43:38;;;;;;;5.27;2.97;;;;;;;;;;5000765;28;87616;-53
2022/08/09 09:46:09;;;;;;;5.23;2.20;;;;;;;;;;5008029;28;86926;-52
2022/08/09 09:48:57;;;;;;;7.47;2.50;;;;;;;;;;5010294;28;87734;-53
2022/08/09 09:51:29;;;;;;;3.93;2.63;;;;;;;;;;5010054;28;88130;-51
2022/08/09 09:54:07;;;;;;;5.20;2.90;;;;;;;;;;5009628;28;88325;-52
2022/08/09 09:56:49;;;;;;;8.50;3.47;;;;;;;;;;5009978;28;87000;-52
2022/08/09 09:59:37;;;;;;;6.57;3.17;;;;;;;;;;5010586;28;88792;-52
2022/08/09 10:02:06;;;;;;;8.97;3.27;;;;;;;;;;5008547;28;88759;-52
2022/08/09 10:04:35;;;;;;;7.10;3.43;;;;;;;;;;5007510;28;89034;-52
2022/08/09 10:07:05;;;;;;;5.83;3.50;;;;;;;;;;5008646;28;87037;-52
2022/08/09 10:09:47;;;;;;;6.10;3.57;;;;;;;;;;5013037;28;88289;-52
2022/08/09 10:12:23;;;;;;;6.77;3.33;;;;;;;;;;5008100;28;87802;-53
2022/08/09 10:15:14;;;;;;;5.63;3.17;;;;;;;;;;5003943;28;87047;-52
2022/08/09 10:18:10;;;;;;;5.80;2.93;;;;;;;;;;5004153;28;86302;-53
2022/08/09 10:20:39;;;;;;;5.30;3.00;;;;;;;;;;5003849;28;87990;-53
2022/08/09 10:23:18;;;;;;;10.33;3.67;;;;;;;;;;5002720;28;87694;-53
2022/08/09 10:25:49;;;;;;;7.63;3.87;;;;;;;;;;5003661;28;87983;-53
2022/08/09 10:28:38;;;;;;;8.50;3.90;;;;;;;;;;5003981;28;86857;-53
2022/08/09 10:31:07;;;;;;;8.80;4.03;;;;;;;;;;5003633;28;89128;-53
2022/08/09 10:33:56;;;;;;;6.73;3.07;;;;;;;;;;5001576;28;87581;-53
2022/08/09 10:36:44;;;;;;;6.03;3.20;;;;;;;;;;5006378;28;86956;-53
2022/08/09 10:39:14;;;;;;;8.47;3.60;;;;;;;;;;5020661;28;86910;-53
2022/08/09 10:41:46;;;;;;;4.87;2.63;;;;;;;;;;5023715;28;87022;-52
2022/08/09 10:44:17;;;;;;;11.90;3.77;;;;;;;;;;5023713;28;87627;-52
2022/08/09 10:47:06;;;;;;;6.30;3.00;;;;;;;;;;5023800;28;87088;-53
2022/08/09 10:49:57;;;;;;;5.97;3.37;;;;;;;;;;5010633;28;87016;-53
2022/08/09 10:52:30;;;;;;;4.63;2.93;;;;;;;;;;5003112;28;89286;-53
2022/08/09 10:55:03;;;;;;;4.87;2.80;;;;;;;;;;5003399;28;88700;-52
2022/08/09 10:57:35;;;;;;;3.83;2.37;;;;;;;;;;5003365;28;86886;-52
2022/08/09 11:00:10;;;;;;;5.60;2.80;;;;;;;;;;5003672;28;87037;-53
2022/08/09 11:02:43;;;;;;;4.77;2.10;;;;;;;;;;5003650;28;88041;-52
2022/08/09 11:05:31;;;;;;;4.20;2.37;;;;;;;;;;5003534;28;86907;-52
2022/08/09 11:08:15;;;;;;;3.87;1.97;;;;;;;;;;5003756;28;87095;-52
2022/08/09 11:10:57;;;;;;;6.40;2.47;;;;;;;;;;5004208;28;86276;-52
2022/08/09 11:13:35;;;;;;;4.27;1.77;;;;;;;;;;5003643;28;89268;-52
2022/08/09 11:16:37;;;;;;;4.00;1.80;;;;;;;;;;5003640;28;87940;-54
2022/08/09 11:19:06;;;;;;;2.50;1.40;;;;;;;;;;5002233;28;87702;-52
2022/08/09 11:21:50;;;;;;;3.67;1.83;;;;;;;;;;5003244;28;87093;-53
2022/08/09 11:24:47;;;;;;;3.67;1.83;;;;;;;;;;5002631;28;88996;-53
2022/08/09 11:27:30;;;;;;;4.33;1.50;;;;;;;;;;5001747;28;88990;-52
2022/08/09 11:30:31;;;;;;;2.33;1.17;;;;;;;;;;5002801;28;86976;-53
2022/08/09 11:33:03;;;;;;;2.23;1.27;;;;;;;;;;5002847;28;87013;-52
2022/08/09 11:35:32;;;;;;;1.80;1.20;;;;;;;;;;5003122;28;88278;-52
2022/08/09 11:38:14;;;;;;;3.03;1.50;;;;;;;;;;5002848;28;91156;-51
2022/08/09 11:40:44;;;;;;;1.43;1.03;;;;;;;;;;5003267;28;87067;-53
2022/08/09 11:43:16;;;;;;;3.33;1.50;;;;;;;;;;5002946;28;87106;-52
2022/08/09 11:45:53;;;;;;;2.97;1.10;;;;;;;;;;5002008;28;90100;-52
2022/08/09 11:48:26;;;;;;;2.70;1.20;;;;;;;;;;5002946;28;88678;-52
2022/08/09 11:51:04;;;;;;;3.10;1.30;;;;;;;;;;5002776;28;87023;-53
2022/08/09 11:54:11;;;;;;;0.77;0.70;;;;;;;;;;5002000;28;87010;-53
2022/08/09 11:56:41;;;;;;;2.13;0.87;;;;;;;;;;5002904;28;88045;-52
2022/08/09 11:59:26;;;;;;;2.53;1.00;;;;;;;;;;5002303;28;87597;-52
2022/08/09 12:02:00;;;;;;;1.37;0.90;;;;;;;;;;5002888;28;87214;-52
2022/08/09 12:04:51;;;;;;;2.03;1.10;;;;;;;;;;5003224;28;86269;-52
2022/08/09 12:07:27;;;;;;;1.00;0.80;;;;;;;;;;5002657;28;88113;-52
2022/08/09 12:10:09;;;;;;;1.57;0.80;;;;;;;;;;5002568;28;89008;-52
2022/08/09 12:12:57;;;;;;;0.93;0.90;;;;;;;;;;5001871;28;87825;-52
2022/08/09 12:15:27;;;;;;;0.77;0.47;;;;;;;;;;5002679;28;87111;-52
2022/08/09 12:18:16;;;;;;;0.50;0.50;;;;;;;;;;5002255;28;87036;-52
2022/08/09 12:20:57;;;;;;;1.07;0.60;;;;;;;;;;5006065;28;87764;-53
2022/08/09 12:23:27;;;;;;;0.70;0.57;;;;;;;;;;5010878;28;87641;-52
2022/08/09 12:26:15;;;;;;;1.60;0.70;;;;;;;;;;5001864;28;87917;-53
2022/08/09 12:28:54;;;;;;;1.73;1.00;;;;;;;;;;5001665;28;89115;-52
2022/08/09 12:31:44;;;;;;;1.13;0.60;;;;;;;;;;5001106;28;87404;-52
2022/08/09 12:34:33;;;;;;;0.63;0.63;;;;;;;;;;5002099;28;87012;-53
2022/08/09 12:37:02;;;;;;;1.37;0.80;;;;;;;;;;5002075;28;86961;-52
2022/08/09 12:39:59;;;;;;;1.20;0.90;;;;;;;;;;5001212;28;88717;-52
2022/08/09 12:42:28;;;;;;;0.67;0.67;;;;;;;;;;5001919;28;89832;-53
2022/08/09 12:44:57;;;;;;;0.60;0.47;;;;;;;;;;5001908;28;87114;-52
2022/08/09 12:47:28;;;;;;;0.77;0.40;;;;;;;;;;5001619;28;87499;-54
2022/08/09 12:50:18;;;;;;;0.60;0.60;;;;;;;;;;5001059;28;89056;-53
2022/08/09 12:52:52;;;;;;;0.80;0.50;;;;;;;;;;5001536;28;87065;-52
2022/08/09 12:55:40;;;;;;;1.67;0.70;;;;;;;;;;5001667;28;87527;-52
2022/08/09 12:58:28;;;;;;;0.50;0.50;;;;;;;;;;5001855;28;86125;-53
2022/08/09 13:01:00;;;;;;;0.60;0.60;;;;;;;;;;5001537;28;87873;-54
2022/08/09 13:03:33;;;;;;;1.97;0.97;;;;;;;;;;5001860;28;88788;-53
2022/08/09 13:06:24;;;;;;;0.50;0.50;;;;;;;;;;5001496;28;88294;-53
2022/08/09 13:09:03;;;;;;;1.20;0.70;;;;;;;;;;5001799;28;86967;-54
2022/08/09 13:11:33;;;;;;;1.47;0.90;;;;;;;;;;5001680;28;89186;-53
2022/08/09 13:14:08;;;;;;;4.57;1.20;;;;;;;;;;5001095;28;87208;-51
2022/08/09 13:16:57;;;;;;;5.50;2.50;;;;;;;;;;5001868;28;87985;-52
2022/08/09 13:19:27;;;;;;;11.40;4.30;;;;;;;;;;5001486;28;86996;-52
2022/08/09 13:22:16;;;;;;;12.07;5.13;;;;;;;;;;5000874;28;87648;-52
2022/08/09 13:25:04;;;;;;;10.60;5.37;;;;;;;;;;5001084;28;87546;-52
2022/08/09 13:27:35;;;;;;;10.57;5.50;;;;;;;;;;5000979;28;87019;-53
2022/08/09 13:30:11;;;;;;;16.07;6.50;;;;;;;;;;5001557;28;86884;-52
2022/08/09 13:32:59;;;;;;;14.23;5.83;;;;;;;;;;5000359;28;88870;-52
2022/08/09 13:35:29;;;;;;;14.57;5.63;;;;;;;;;;5000942;28;88753;-53
2022/08/09 13:38:17;;;;;;;13.00;5.47;;;;;;;;;;5001125;28;86958;-52
2022/08/09 13:41:05;;;;;;;13.03;5.27;;;;;;;;;;5001168;28;86987;-54
2022/08/09 13:43:54;;;;;;;10.80;5.17;;;;;;;;;;5001862;28;89834;-52
2022/08/09 13:46:22;;;;;;;12.90;6.10;;;;;;;;;;5003267;28;89027;-53
2022/08/09 13:49:10;;;;;;;10.30;6.27;;;;;;;;;;5004198;28;86971;-52
2022/08/09 13:51:47;;;;;;;11.10;5.50;;;;;;;;;;5004230;28;86097;-53
2022/08/09 13:54:28;;;;;;;9.53;5.50;;;;;;;;;;5003279;28;88096;-53
2022/08/09 13:56:57;;;;;;;7.97;4.77;;;;;;;;;;5004102;28;91645;-54
2022/08/09 13:59:26;;;;;;;6.10;3.73;;;;;;;;;;5002943;28;88052;-52
2022/08/09 14:02:09;;;;;;;7.23;3.93;;;;;;;;;;5004034;28;86882;-53
2022/08/09 14:04:37;;;;;;;6.43;3.67;;;;;;;;;;5004017;28;87897;-52
2022/08/09 14:07:17;;;;;;;6.53;3.00;;;;;;;;;;5004195;28;87845;-54
2022/08/09 14:09:50;;;;;;;6.13;3.13;;;;;;;;;;5004741;28;86792;-53
2022/08/09 14:12:20;;;;;;;5.93;3.50;;;;;;;;;;5004183;28;87058;-53
2022/08/09 14:14:51;;;;;;;6.30;3.90;;;;;;;;;;5004366;28;87981;-53
2022/08/09 14:17:21;;;;;;;6.07;3.10;;;;;;;;;;5004572;28;87489;-54
2022/08/09 14:19:51;;;;;;;4.90;2.43;;;;;;;;;;5004318;28;86938;-54
2022/08/09 14:22:21;;;;;;;6.17;2.90;;;;;;;;;;5004505;28;87008;-53
2022/08/09 14:24:50;;;;;;;3.83;2.40;;;;;;;;;;5003313;28;87860;-53
2022/08/09 14:27:21;;;;;;;5.43;2.60;;;;;;;;;;5003562;28;88691;-53
2022/08/09 14:29:53;;;;;;;5.40;2.63;;;;;;;;;;5004109;28;87452;-53
2022/08/09 14:32:42;;;;;;;2.83;1.73;;;;;;;;;;5004298;28;87039;-53
2022/08/09 14:35:11;;;;;;;2.60;1.57;;;;;;;;;;5003701;28;89128;-52
2022/08/09 14:37:40;;;;;;;3.63;2.07;;;;;;;;;;5004087;28;88954;-53
2022/08/09 14:40:29;;;;;;;2.30;1.50;;;;;;;;;;5003454;28;86953;-55
2022/08/09 14:43:17;;;;;;;2.13;1.80;;;;;;;;;;5003920;28;86316;-53
2022/08/09 14:45:46;;;;;;;2.90;1.80;;;;;;;;;;5003103;28;88171;-53
2022/08/09 14:48:34;;;;;;;2.73;1.70;;;;;;;;;;5001405;28;87555;-53
2022/08/09 14:51:03;;;;;;;2.23;1.60;;;;;;;;;;5002671;28;87963;-52
2022/08/09 14:53:33;;;;;;;2.43;1.20;;;;;;;;;;5002713;28;87936;-53
2022/08/09 14:56:07;;;;;;;1.50;0.97;;;;;;;;;;5002018;28;87849;-53
2022/08/09 14:58:40;;;;;;;1.50;1.17;;;;;;;;;;5002601;28;86973;-52
2022/08/09 15:01:11;;;;;;;1.60;1.07;;;;;;;;;;5003450;28;86984;-53
2022/08/09 15:03:40;;;;;;;1.43;1.20;;;;;;;;;;5003690;28;86946;-53
2022/08/09 15:06:10;;;;;;;2.50;0.97;;;;;;;;;;5003492;28;89332;-52
2022/08/09 15:08:43;;;;;;;1.73;1.20;;;;;;;;;;5003647;28;88771;-53
2022/08/09 15:11:24;;;;;;;2.00;1.30;;;;;;;;;;5013854;28;87182;-53
2022/08/09 15:13:53;;;;;;;2.17;1.30;;;;;;;;;;5011715;28;87051;-53
2022/08/09 15:16:31;;;;;;;1.20;0.70;;;;;;;;;;5010549;28;89708;-53
2022/08/09 15:19:00;;;;;;;1.50;1.20;;;;;;;;;;5012155;28;88832;-53
2022/08/09 15:21:43;;;;;;;1.10;0.73;;;;;;;;;;5013766;28;87106;-54
2022/08/09 15:24:30;;;;;;;0.83;0.73;;;;;;;;;;5012745;28;87817;-53
2022/08/09 15:26:58;;;;;;;0.67;0.67;;;;;;;;;;5011858;28;88267;-54
2022/08/09 15:29:28;;;;;;;1.30;1.10;;;;;;;;;;5010338;28;88881;-52
2022/08/09 15:32:17;;;;;;;3.60;0.90;;;;;;;;;;5013569;28;87020;-53
2022/08/09 15:34:58;;;;;;;1.53;0.70;;;;;;;;;;5012509;28;86286;-53
2022/08/09 15:40:34;;;;;;;0.93;0.80;;;;;;;;;;5011686;28;87423;-52
2022/08/09 15:43:02;;;;;;;0.70;0.70;;;;;;;;;;5011718;28;88050;-52
2022/08/09 15:45:30;;;;;;;0.90;0.60;;;;;;;;;;5013336;28;87121;-52
2022/08/09 15:48:18;;;;;;;2.03;0.93;;;;;;;;;;5011589;28;86870;-52